sensor_id;sensor_type;location;lat;lon;timestamp;temperature;humidity
49132;DHT22;35149;51.196;6.204;2023-04-19T00:01:32;15.50;50.00
49132;DHT22;35149;51.196;6.204;2023-04-19T00:03:59;15.50;49.90
49132;DHT22;35149;51.196;6.204;2023-04-19T00:06:26;15.50;50.10
49132;DHT22;35149;51.196;6.204;2023-04-19T00:08:57;15.50;50.10
49132;DHT22;35149;51.196;6.204;2023-04-19T00:11:24;15.50;50.10
49132;DHT22;35149;51.196;6.204;2023-04-19T00:13:58;15.50;50.20
49132;DHT22;35149;51.196;6.204;2023-04-19T00:16:26;15.50;50.30
49132;DHT22;35149;51.196;6.204;2023-04-19T00:18:53;15.50;50.40
49132;DHT22;35149;51.196;6.204;2023-04-19T00:21:20;15.50;50.50
49132;DHT22;35149;51.196;6.204;2023-04-19T00:23:49;15.50;50.50
49132;DHT22;35149;51.196;6.204;2023-04-19T00:26:17;15.50;50.50
49132;DHT22;35149;51.196;6.204;2023-04-19T00:28:50;15.50;50.50
49132;DHT22;35149;51.196;6.204;2023-04-19T00:31:19;15.50;50.10
49132;DHT22;35149;51.196;6.204;2023-04-19T00:33:45;15.50;50.20
49132;DHT22;35149;51.196;6.204;2023-04-19T00:36:12;15.50;50.40
49132;DHT22;35149;51.196;6.204;2023-04-19T00:38:39;15.50;50.50
49132;DHT22;35149;51.196;6.204;2023-04-19T00:41:06;15.50;50.70
49132;DHT22;35149;51.196;6.204;2023-04-19T00:43:35;15.50;50.70
49132;DHT22;35149;51.196;6.204;2023-04-19T00:46:01;15.40;50.80
49132;DHT22;35149;51.196;6.204;2023-04-19T00:48:28;15.40;50.80
49132;DHT22;35149;51.196;6.204;2023-04-19T00:50:56;15.40;50.90
49132;DHT22;35149;51.196;6.204;2023-04-19T00:53:25;15.40;50.90
49132;DHT22;35149;51.196;6.204;2023-04-19T00:55:53;15.50;51.10
49132;DHT22;35149;51.196;6.204;2023-04-19T00:58:20;15.40;51.10
49132;DHT22;35149;51.196;6.204;2023-04-19T01:00:49;15.40;51.10
49132;DHT22;35149;51.196;6.204;2023-04-19T01:03:18;15.40;51.20
49132;DHT22;35149;51.196;6.204;2023-04-19T01:05:48;15.40;52.00
49132;DHT22;35149;51.196;6.204;2023-04-19T01:08:14;15.40;51.50
49132;DHT22;35149;51.196;6.204;2023-04-19T01:10:42;15.40;51.40
49132;DHT22;35149;51.196;6.204;2023-04-19T01:13:08;15.40;51.50
49132;DHT22;35149;51.196;6.204;2023-04-19T01:15:37;15.40;51.70
49132;DHT22;35149;51.196;6.204;2023-04-19T01:18:03;15.40;51.80
49132;DHT22;35149;51.196;6.204;2023-04-19T01:20:30;15.40;51.80
49132;DHT22;35149;51.196;6.204;2023-04-19T01:22:57;15.40;51.90
49132;DHT22;35149;51.196;6.204;2023-04-19T01:25:26;15.30;51.90
49132;DHT22;35149;51.196;6.204;2023-04-19T01:27:53;15.40;52.00
49132;DHT22;35149;51.196;6.204;2023-04-19T01:30:22;15.30;52.10
49132;DHT22;35149;51.196;6.204;2023-04-19T01:32:49;15.30;52.10
49132;DHT22;35149;51.196;6.204;2023-04-19T01:35:16;15.30;52.30
49132;DHT22;35149;51.196;6.204;2023-04-19T01:37:43;15.30;52.40
49132;DHT22;35149;51.196;6.204;2023-04-19T01:40:10;15.30;52.40
49132;DHT22;35149;51.196;6.204;2023-04-19T01:42:36;15.20;52.40
49132;DHT22;35149;51.196;6.204;2023-04-19T01:45:06;15.20;52.50
49132;DHT22;35149;51.196;6.204;2023-04-19T01:47:35;15.20;52.90
49132;DHT22;35149;51.196;6.204;2023-04-19T01:50:04;15.20;52.70
49132;DHT22;35149;51.196;6.204;2023-04-19T01:52:31;15.20;52.80
49132;DHT22;35149;51.196;6.204;2023-04-19T01:54:59;15.20;52.90
49132;DHT22;35149;51.196;6.204;2023-04-19T01:57:25;15.10;53.00
49132;DHT22;35149;51.196;6.204;2023-04-19T01:59:56;15.10;53.10
49132;DHT22;35149;51.196;6.204;2023-04-19T02:02:22;15.10;53.20
49132;DHT22;35149;51.196;6.204;2023-04-19T02:04:49;15.20;53.20
49132;DHT22;35149;51.196;6.204;2023-04-19T02:07:16;15.10;53.20
49132;DHT22;35149;51.196;6.204;2023-04-19T02:09:42;15.10;53.30
49132;DHT22;35149;51.196;6.204;2023-04-19T02:12:10;15.10;53.30
49132;DHT22;35149;51.196;6.204;2023-04-19T02:14:37;15.00;53.40
49132;DHT22;35149;51.196;6.204;2023-04-19T02:17:04;15.00;53.50
49132;DHT22;35149;51.196;6.204;2023-04-19T02:19:31;14.90;53.60
49132;DHT22;35149;51.196;6.204;2023-04-19T02:21:57;14.90;53.70
49132;DHT22;35149;51.196;6.204;2023-04-19T02:24:24;14.80;53.90
49132;DHT22;35149;51.196;6.204;2023-04-19T02:26:53;14.80;54.10
49132;DHT22;35149;51.196;6.204;2023-04-19T02:29:21;14.80;54.30
49132;DHT22;35149;51.196;6.204;2023-04-19T02:31:48;14.80;54.40
49132;DHT22;35149;51.196;6.204;2023-04-19T02:34:15;14.80;54.60
49132;DHT22;35149;51.196;6.204;2023-04-19T02:36:44;14.80;54.70
49132;DHT22;35149;51.196;6.204;2023-04-19T02:39:11;14.80;54.90
49132;DHT22;35149;51.196;6.204;2023-04-19T02:41:38;14.80;55.00
49132;DHT22;35149;51.196;6.204;2023-04-19T02:44:04;14.80;55.00
49132;DHT22;35149;51.196;6.204;2023-04-19T02:46:33;14.80;55.10
49132;DHT22;35149;51.196;6.204;2023-04-19T02:49:02;14.80;55.10
49132;DHT22;35149;51.196;6.204;2023-04-19T02:51:33;14.80;55.50
49132;DHT22;35149;51.196;6.204;2023-04-19T02:54:04;14.80;55.30
49132;DHT22;35149;51.196;6.204;2023-04-19T02:56:31;14.80;55.30
49132;DHT22;35149;51.196;6.204;2023-04-19T02:59:01;14.80;55.50
49132;DHT22;35149;51.196;6.204;2023-04-19T03:01:30;14.80;55.90
49132;DHT22;35149;51.196;6.204;2023-04-19T03:04:03;14.80;55.80
49132;DHT22;35149;51.196;6.204;2023-04-19T03:06:31;14.80;55.80
49132;DHT22;35149;51.196;6.204;2023-04-19T03:09:00;14.80;56.00
49132;DHT22;35149;51.196;6.204;2023-04-19T03:11:27;14.80;56.30
49132;DHT22;35149;51.196;6.204;2023-04-19T03:13:53;14.80;56.10
49132;DHT22;35149;51.196;6.204;2023-04-19T03:16:20;14.80;56.10
49132;DHT22;35149;51.196;6.204;2023-04-19T03:18:48;14.80;56.20
49132;DHT22;35149;51.196;6.204;2023-04-19T03:21:18;14.80;56.20
49132;DHT22;35149;51.196;6.204;2023-04-19T03:23:53;14.80;56.10
49132;DHT22;35149;51.196;6.204;2023-04-19T03:26:24;14.80;56.10
49132;DHT22;35149;51.196;6.204;2023-04-19T03:28:54;14.90;56.20
49132;DHT22;35149;51.196;6.204;2023-04-19T03:31:36;14.90;56.00
49132;DHT22;35149;51.196;6.204;2023-04-19T03:34:03;14.90;56.00
49132;DHT22;35149;51.196;6.204;2023-04-19T03:36:38;14.90;56.00
49132;DHT22;35149;51.196;6.204;2023-04-19T03:39:11;14.90;56.00
49132;DHT22;35149;51.196;6.204;2023-04-19T03:41:44;14.90;55.80
49132;DHT22;35149;51.196;6.204;2023-04-19T03:44:33;15.10;55.60
49132;DHT22;35149;51.196;6.204;2023-04-19T03:47:03;15.00;55.50
49132;DHT22;35149;51.196;6.204;2023-04-19T03:49:36;15.00;55.50
49132;DHT22;35149;51.196;6.204;2023-04-19T03:52:04;15.00;55.50
49132;DHT22;35149;51.196;6.204;2023-04-19T03:54:35;15.00;55.60
49132;DHT22;35149;51.196;6.204;2023-04-19T03:57:05;15.00;55.90
49132;DHT22;35149;51.196;6.204;2023-04-19T03:59:38;15.10;55.90
49132;DHT22;35149;51.196;6.204;2023-04-19T04:02:06;15.10;55.10
49132;DHT22;35149;51.196;6.204;2023-04-19T04:04:33;15.00;55.40
49132;DHT22;35149;51.196;6.204;2023-04-19T04:07:00;15.00;55.50
49132;DHT22;35149;51.196;6.204;2023-04-19T04:09:27;15.00;55.70
49132;DHT22;35149;51.196;6.204;2023-04-19T04:11:54;15.00;55.80
49132;DHT22;35149;51.196;6.204;2023-04-19T04:14:21;15.00;56.50
49132;DHT22;35149;51.196;6.204;2023-04-19T04:16:53;15.00;55.80
49132;DHT22;35149;51.196;6.204;2023-04-19T04:19:19;14.90;55.90
49132;DHT22;35149;51.196;6.204;2023-04-19T04:21:48;14.90;55.70
49132;DHT22;35149;51.196;6.204;2023-04-19T04:24:18;14.90;55.50
49132;DHT22;35149;51.196;6.204;2023-04-19T04:26:59;14.90;55.60
49132;DHT22;35149;51.196;6.204;2023-04-19T04:29:29;14.90;55.50
49132;DHT22;35149;51.196;6.204;2023-04-19T04:32:15;14.90;55.60
49132;DHT22;35149;51.196;6.204;2023-04-19T04:34:43;14.90;56.00
49132;DHT22;35149;51.196;6.204;2023-04-19T04:37:17;14.90;55.50
49132;DHT22;35149;51.196;6.204;2023-04-19T04:39:45;14.80;55.50
49132;DHT22;35149;51.196;6.204;2023-04-19T04:42:12;14.80;55.50
49132;DHT22;35149;51.196;6.204;2023-04-19T04:44:40;14.80;55.50
49132;DHT22;35149;51.196;6.204;2023-04-19T04:47:12;14.80;55.50
49132;DHT22;35149;51.196;6.204;2023-04-19T04:49:46;14.80;55.70
49132;DHT22;35149;51.196;6.204;2023-04-19T04:52:13;14.80;55.60
49132;DHT22;35149;51.196;6.204;2023-04-19T04:54:52;14.80;55.60
49132;DHT22;35149;51.196;6.204;2023-04-19T04:57:26;15.00;55.70
49132;DHT22;35149;51.196;6.204;2023-04-19T04:59:56;14.80;55.50
49132;DHT22;35149;51.196;6.204;2023-04-19T05:02:32;14.80;55.60
49132;DHT22;35149;51.196;6.204;2023-04-19T05:04:59;14.70;55.60
49132;DHT22;35149;51.196;6.204;2023-04-19T05:07:26;14.70;55.70
49132;DHT22;35149;51.196;6.204;2023-04-19T05:09:52;14.80;55.80
49132;DHT22;35149;51.196;6.204;2023-04-19T05:12:23;14.70;55.80
49132;DHT22;35149;51.196;6.204;2023-04-19T05:14:50;14.70;55.70
49132;DHT22;35149;51.196;6.204;2023-04-19T05:17:17;14.80;55.80
49132;DHT22;35149;51.196;6.204;2023-04-19T05:19:44;14.80;55.90
49132;DHT22;35149;51.196;6.204;2023-04-19T05:22:11;14.80;55.90
49132;DHT22;35149;51.196;6.204;2023-04-19T05:24:38;14.80;55.80
49132;DHT22;35149;51.196;6.204;2023-04-19T05:27:08;14.80;55.80
49132;DHT22;35149;51.196;6.204;2023-04-19T05:29:35;14.80;55.80
49132;DHT22;35149;51.196;6.204;2023-04-19T05:32:04;14.80;55.70
49132;DHT22;35149;51.196;6.204;2023-04-19T05:34:40;14.80;55.70
49132;DHT22;35149;51.196;6.204;2023-04-19T05:37:10;14.80;55.90
49132;DHT22;35149;51.196;6.204;2023-04-19T05:39:40;14.80;55.90
49132;DHT22;35149;51.196;6.204;2023-04-19T05:42:10;14.80;55.70
49132;DHT22;35149;51.196;6.204;2023-04-19T05:44:36;14.80;55.70
49132;DHT22;35149;51.196;6.204;2023-04-19T05:47:06;14.80;55.70
49132;DHT22;35149;51.196;6.204;2023-04-19T05:49:59;14.80;55.70
49132;DHT22;35149;51.196;6.204;2023-04-19T05:52:33;14.90;55.50
49132;DHT22;35149;51.196;6.204;2023-04-19T05:55:00;14.90;55.30
49132;DHT22;35149;51.196;6.204;2023-04-19T05:57:28;14.90;55.30
49132;DHT22;35149;51.196;6.204;2023-04-19T05:59:57;14.90;54.80
49132;DHT22;35149;51.196;6.204;2023-04-19T06:02:38;14.90;54.70
49132;DHT22;35149;51.196;6.204;2023-04-19T06:05:11;14.90;54.30
49132;DHT22;35149;51.196;6.204;2023-04-19T06:07:38;15.00;54.20
49132;DHT22;35149;51.196;6.204;2023-04-19T06:10:16;15.00;54.10
49132;DHT22;35149;51.196;6.204;2023-04-19T06:12:45;15.00;53.90
49132;DHT22;35149;51.196;6.204;2023-04-19T06:15:12;15.00;53.80
49132;DHT22;35149;51.196;6.204;2023-04-19T06:17:38;15.00;53.50
49132;DHT22;35149;51.196;6.204;2023-04-19T06:20:06;15.10;53.30
49132;DHT22;35149;51.196;6.204;2023-04-19T06:22:33;15.10;53.00
49132;DHT22;35149;51.196;6.204;2023-04-19T06:25:00;15.10;52.80
49132;DHT22;35149;51.196;6.204;2023-04-19T06:27:27;15.00;52.50
49132;DHT22;35149;51.196;6.204;2023-04-19T06:29:54;15.10;52.30
49132;DHT22;35149;51.196;6.204;2023-04-19T06:32:20;15.00;52.00
49132;DHT22;35149;51.196;6.204;2023-04-19T06:34:47;15.00;52.00
49132;DHT22;35149;51.196;6.204;2023-04-19T06:37:14;15.00;51.90
49132;DHT22;35149;51.196;6.204;2023-04-19T06:39:40;14.90;51.70
49132;DHT22;35149;51.196;6.204;2023-04-19T06:42:07;14.90;51.60
49132;DHT22;35149;51.196;6.204;2023-04-19T06:44:36;14.90;51.60
49132;DHT22;35149;51.196;6.204;2023-04-19T06:47:02;14.90;51.50
49132;DHT22;35149;51.196;6.204;2023-04-19T06:49:29;14.90;51.20
49132;DHT22;35149;51.196;6.204;2023-04-19T06:51:58;14.90;51.20
49132;DHT22;35149;51.196;6.204;2023-04-19T06:54:27;14.90;51.10
49132;DHT22;35149;51.196;6.204;2023-04-19T06:56:55;14.90;51.10
49132;DHT22;35149;51.196;6.204;2023-04-19T06:59:24;14.90;51.10
49132;DHT22;35149;51.196;6.204;2023-04-19T07:01:53;14.90;51.10
49132;DHT22;35149;51.196;6.204;2023-04-19T07:04:20;14.90;51.20
49132;DHT22;35149;51.196;6.204;2023-04-19T07:06:48;14.90;51.10
49132;DHT22;35149;51.196;6.204;2023-04-19T07:09:15;14.90;51.10
49132;DHT22;35149;51.196;6.204;2023-04-19T07:11:44;14.90;51.10
49132;DHT22;35149;51.196;6.204;2023-04-19T07:14:13;14.90;50.90
49132;DHT22;35149;51.196;6.204;2023-04-19T07:16:40;14.90;50.80
49132;DHT22;35149;51.196;6.204;2023-04-19T07:19:11;14.80;51.00
49132;DHT22;35149;51.196;6.204;2023-04-19T07:21:38;14.90;51.00
49132;DHT22;35149;51.196;6.204;2023-04-19T07:24:05;14.80;50.90
49132;DHT22;35149;51.196;6.204;2023-04-19T07:26:32;14.80;50.90
49132;DHT22;35149;51.196;6.204;2023-04-19T07:29:02;14.70;51.00
49132;DHT22;35149;51.196;6.204;2023-04-19T07:31:28;14.80;51.00
49132;DHT22;35149;51.196;6.204;2023-04-19T07:33:55;14.70;50.80
49132;DHT22;35149;51.196;6.204;2023-04-19T07:36:21;14.70;51.40
49132;DHT22;35149;51.196;6.204;2023-04-19T07:38:48;14.70;50.60
49132;DHT22;35149;51.196;6.204;2023-04-19T07:41:15;14.70;50.60
49132;DHT22;35149;51.196;6.204;2023-04-19T07:43:41;14.70;50.40
49132;DHT22;35149;51.196;6.204;2023-04-19T07:46:16;14.70;50.30
49132;DHT22;35149;51.196;6.204;2023-04-19T07:48:45;14.70;50.10
49132;DHT22;35149;51.196;6.204;2023-04-19T07:51:13;14.70;50.00
49132;DHT22;35149;51.196;6.204;2023-04-19T07:53:42;14.70;49.80
49132;DHT22;35149;51.196;6.204;2023-04-19T07:56:10;14.70;49.50
49132;DHT22;35149;51.196;6.204;2023-04-19T07:58:41;14.70;49.40
49132;DHT22;35149;51.196;6.204;2023-04-19T08:01:11;14.70;49.20
49132;DHT22;35149;51.196;6.204;2023-04-19T08:03:38;14.70;49.10
49132;DHT22;35149;51.196;6.204;2023-04-19T08:06:06;14.70;48.90
49132;DHT22;35149;51.196;6.204;2023-04-19T08:08:35;14.80;48.70
49132;DHT22;35149;51.196;6.204;2023-04-19T08:11:03;14.80;48.50
49132;DHT22;35149;51.196;6.204;2023-04-19T08:13:29;14.80;48.50
49132;DHT22;35149;51.196;6.204;2023-04-19T08:15:56;14.80;48.40
49132;DHT22;35149;51.196;6.204;2023-04-19T08:18:26;14.80;48.50
49132;DHT22;35149;51.196;6.204;2023-04-19T08:20:53;14.80;47.90
49132;DHT22;35149;51.196;6.204;2023-04-19T08:23:20;14.80;47.80
49132;DHT22;35149;51.196;6.204;2023-04-19T08:25:55;14.80;47.80
49132;DHT22;35149;51.196;6.204;2023-04-19T08:28:24;14.80;47.60
49132;DHT22;35149;51.196;6.204;2023-04-19T08:30:50;14.90;47.30
49132;DHT22;35149;51.196;6.204;2023-04-19T08:33:21;14.90;47.20
49132;DHT22;35149;51.196;6.204;2023-04-19T08:35:49;14.90;47.20
49132;DHT22;35149;51.196;6.204;2023-04-19T08:38:15;14.90;47.30
49132;DHT22;35149;51.196;6.204;2023-04-19T08:40:46;15.00;47.10
49132;DHT22;35149;51.196;6.204;2023-04-19T08:43:16;15.00;46.90
49132;DHT22;35149;51.196;6.204;2023-04-19T08:45:46;15.00;47.00
49132;DHT22;35149;51.196;6.204;2023-04-19T08:48:14;15.10;47.00
49132;DHT22;35149;51.196;6.204;2023-04-19T08:50:44;15.10;46.70
49132;DHT22;35149;51.196;6.204;2023-04-19T08:53:33;15.10;46.50
49132;DHT22;35149;51.196;6.204;2023-04-19T08:56:02;15.20;46.60
49132;DHT22;35149;51.196;6.204;2023-04-19T08:58:49;15.20;46.60
49132;DHT22;35149;51.196;6.204;2023-04-19T09:01:35;15.20;46.40
49132;DHT22;35149;51.196;6.204;2023-04-19T09:04:06;15.30;46.30
49132;DHT22;35149;51.196;6.204;2023-04-19T09:06:53;15.30;46.30
49132;DHT22;35149;51.196;6.204;2023-04-19T09:09:22;15.30;45.70
49132;DHT22;35149;51.196;6.204;2023-04-19T09:11:54;15.40;45.70
49132;DHT22;35149;51.196;6.204;2023-04-19T09:14:24;15.40;45.60
49132;DHT22;35149;51.196;6.204;2023-04-19T09:17:09;15.40;45.40
49132;DHT22;35149;51.196;6.204;2023-04-19T09:19:49;15.40;45.20
49132;DHT22;35149;51.196;6.204;2023-04-19T09:22:18;15.50;44.80
49132;DHT22;35149;51.196;6.204;2023-04-19T09:24:49;15.50;45.30
49132;DHT22;35149;51.196;6.204;2023-04-19T09:27:38;15.60;45.30
49132;DHT22;35149;51.196;6.204;2023-04-19T09:30:08;15.60;45.10
49132;DHT22;35149;51.196;6.204;2023-04-19T09:32:49;15.70;44.60
49132;DHT22;35149;51.196;6.204;2023-04-19T09:35:16;15.70;44.50
49132;DHT22;35149;51.196;6.204;2023-04-19T09:38:02;15.70;43.90
49132;DHT22;35149;51.196;6.204;2023-04-19T09:40:33;15.80;43.20
49132;DHT22;35149;51.196;6.204;2023-04-19T09:43:01;15.80;43.30
49132;DHT22;35149;51.196;6.204;2023-04-19T09:45:50;15.80;43.50
49132;DHT22;35149;51.196;6.204;2023-04-19T09:48:22;15.80;43.30
49132;DHT22;35149;51.196;6.204;2023-04-19T09:50:59;15.90;43.30
49132;DHT22;35149;51.196;6.204;2023-04-19T09:53:31;15.90;43.10
49132;DHT22;35149;51.196;6.204;2023-04-19T09:56:03;16.00;43.50
49132;DHT22;35149;51.196;6.204;2023-04-19T09:58:31;16.00;42.80
49132;DHT22;35149;51.196;6.204;2023-04-19T10:01:01;16.00;42.70
49132;DHT22;35149;51.196;6.204;2023-04-19T10:03:34;16.00;42.90
49132;DHT22;35149;51.196;6.204;2023-04-19T10:06:09;16.00;42.50
49132;DHT22;35149;51.196;6.204;2023-04-19T10:09:00;16.00;42.30
49132;DHT22;35149;51.196;6.204;2023-04-19T10:11:34;16.10;42.00
49132;DHT22;35149;51.196;6.204;2023-04-19T10:14:10;16.10;41.70
49132;DHT22;35149;51.196;6.204;2023-04-19T10:16:38;16.00;41.20
49132;DHT22;35149;51.196;6.204;2023-04-19T10:19:10;16.00;41.60
49132;DHT22;35149;51.196;6.204;2023-04-19T10:21:41;16.00;41.60
49132;DHT22;35149;51.196;6.204;2023-04-19T10:24:08;16.10;41.60
49132;DHT22;35149;51.196;6.204;2023-04-19T10:32:17;16.10;40.60
49132;DHT22;35149;51.196;6.204;2023-04-19T10:34:44;16.10;40.40
49132;DHT22;35149;51.196;6.204;2023-04-19T10:37:16;16.10;40.30
49132;DHT22;35149;51.196;6.204;2023-04-19T10:39:50;16.10;39.90
49132;DHT22;35149;51.196;6.204;2023-04-19T10:42:20;16.20;39.90
49132;DHT22;35149;51.196;6.204;2023-04-19T10:47:51;16.20;39.60
49132;DHT22;35149;51.196;6.204;2023-04-19T10:50:24;16.30;39.50
49132;DHT22;35149;51.196;6.204;2023-04-19T10:52:56;16.30;38.90
49132;DHT22;35149;51.196;6.204;2023-04-19T10:55:24;16.30;39.40
49132;DHT22;35149;51.196;6.204;2023-04-19T10:58:05;16.40;39.10
49132;DHT22;35149;51.196;6.204;2023-04-19T11:00:34;16.40;39.20
49132;DHT22;35149;51.196;6.204;2023-04-19T11:06:18;16.50;38.60
49132;DHT22;35149;51.196;6.204;2023-04-19T11:08:55;16.60;38.30
49132;DHT22;35149;51.196;6.204;2023-04-19T11:11:25;16.70;37.80
49132;DHT22;35149;51.196;6.204;2023-04-19T11:13:59;16.70;37.80
49132;DHT22;35149;51.196;6.204;2023-04-19T11:16:27;16.80;37.30
49132;DHT22;35149;51.196;6.204;2023-04-19T11:19:32;16.80;37.20
49132;DHT22;35149;51.196;6.204;2023-04-19T11:22:02;16.80;36.90
49132;DHT22;35149;51.196;6.204;2023-04-19T11:24:33;16.90;36.80
49132;DHT22;35149;51.196;6.204;2023-04-19T11:27:06;17.00;38.60
49132;DHT22;35149;51.196;6.204;2023-04-19T11:29:33;17.00;36.90
49132;DHT22;35149;51.196;6.204;2023-04-19T11:32:03;17.00;37.50
49132;DHT22;35149;51.196;6.204;2023-04-19T11:34:35;17.00;37.10
49132;DHT22;35149;51.196;6.204;2023-04-19T11:37:03;17.10;37.20
49132;DHT22;35149;51.196;6.204;2023-04-19T11:39:31;17.10;36.60
49132;DHT22;35149;51.196;6.204;2023-04-19T11:42:00;17.10;36.80
49132;DHT22;35149;51.196;6.204;2023-04-19T11:44:28;17.20;36.30
49132;DHT22;35149;51.196;6.204;2023-04-19T11:47:00;17.20;35.90
49132;DHT22;35149;51.196;6.204;2023-04-19T11:49:29;17.20;35.50
49132;DHT22;35149;51.196;6.204;2023-04-19T11:52:04;17.30;35.80
49132;DHT22;35149;51.196;6.204;2023-04-19T11:54:32;17.30;35.90
49132;DHT22;35149;51.196;6.204;2023-04-19T11:57:05;17.30;35.80
49132;DHT22;35149;51.196;6.204;2023-04-19T11:59:34;17.30;35.50
49132;DHT22;35149;51.196;6.204;2023-04-19T12:02:06;17.30;35.40
49132;DHT22;35149;51.196;6.204;2023-04-19T12:04:36;17.40;35.30
49132;DHT22;35149;51.196;6.204;2023-04-19T12:07:05;17.40;35.10
49132;DHT22;35149;51.196;6.204;2023-04-19T12:09:37;17.50;35.30
49132;DHT22;35149;51.196;6.204;2023-04-19T12:12:06;17.50;35.00
49132;DHT22;35149;51.196;6.204;2023-04-19T12:14:35;17.50;35.00
49132;DHT22;35149;51.196;6.204;2023-04-19T12:17:11;17.50;35.10
49132;DHT22;35149;51.196;6.204;2023-04-19T12:19:45;17.50;34.20
49132;DHT22;35149;51.196;6.204;2023-04-19T12:22:17;17.50;34.90
49132;DHT22;35149;51.196;6.204;2023-04-19T12:24:51;17.50;34.90
49132;DHT22;35149;51.196;6.204;2023-04-19T12:27:20;17.60;34.60
49132;DHT22;35149;51.196;6.204;2023-04-19T12:29:51;17.60;34.50
49132;DHT22;35149;51.196;6.204;2023-04-19T12:32:18;17.60;34.30
49132;DHT22;35149;51.196;6.204;2023-04-19T12:34:45;17.60;34.60
49132;DHT22;35149;51.196;6.204;2023-04-19T12:37:11;17.60;34.60
49132;DHT22;35149;51.196;6.204;2023-04-19T12:39:38;17.60;35.10
49132;DHT22;35149;51.196;6.204;2023-04-19T12:42:04;17.70;35.10
49132;DHT22;35149;51.196;6.204;2023-04-19T12:44:36;17.70;34.50
49132;DHT22;35149;51.196;6.204;2023-04-19T12:47:05;17.80;33.90
49132;DHT22;35149;51.196;6.204;2023-04-19T12:49:41;17.90;33.90
49132;DHT22;35149;51.196;6.204;2023-04-19T12:52:12;17.90;34.00
49132;DHT22;35149;51.196;6.204;2023-04-19T12:54:38;18.00;34.10
49132;DHT22;35149;51.196;6.204;2023-04-19T12:57:05;18.10;34.50
49132;DHT22;35149;51.196;6.204;2023-04-19T12:59:36;18.20;34.30
49132;DHT22;35149;51.196;6.204;2023-04-19T13:02:08;18.30;34.70
49132;DHT22;35149;51.196;6.204;2023-04-19T13:04:40;18.40;33.70
49132;DHT22;35149;51.196;6.204;2023-04-19T13:07:07;18.50;33.00
49132;DHT22;35149;51.196;6.204;2023-04-19T13:09:36;18.60;33.00
49132;DHT22;35149;51.196;6.204;2023-04-19T13:12:06;18.60;32.50
49132;DHT22;35149;51.196;6.204;2023-04-19T13:14:35;18.70;32.60
49132;DHT22;35149;51.196;6.204;2023-04-19T13:17:06;18.80;33.20
49132;DHT22;35149;51.196;6.204;2023-04-19T13:19:36;18.80;32.80
49132;DHT22;35149;51.196;6.204;2023-04-19T13:22:02;19.00;34.20
49132;DHT22;35149;51.196;6.204;2023-04-19T13:24:29;19.00;33.60
49132;DHT22;35149;51.196;6.204;2023-04-19T13:26:58;19.10;32.80
49132;DHT22;35149;51.196;6.204;2023-04-19T13:29:29;19.30;32.40
49132;DHT22;35149;51.196;6.204;2023-04-19T13:32:01;19.40;32.40
49132;DHT22;35149;51.196;6.204;2023-04-19T13:34:34;19.50;32.00
49132;DHT22;35149;51.196;6.204;2023-04-19T13:37:05;19.70;32.10
49132;DHT22;35149;51.196;6.204;2023-04-19T13:39:34;20.10;31.60
49132;DHT22;35149;51.196;6.204;2023-04-19T13:42:06;20.70;32.50
49132;DHT22;35149;51.196;6.204;2023-04-19T13:44:37;21.60;32.40
49132;DHT22;35149;51.196;6.204;2023-04-19T13:47:04;22.60;31.50
49132;DHT22;35149;51.196;6.204;2023-04-19T13:49:34;23.80;31.50
49132;DHT22;35149;51.196;6.204;2023-04-19T13:52:03;25.00;30.30
49132;DHT22;35149;51.196;6.204;2023-04-19T13:54:30;26.20;29.80
49132;DHT22;35149;51.196;6.204;2023-04-19T13:57:02;27.40;29.50
49132;DHT22;35149;51.196;6.204;2023-04-19T13:59:31;28.50;28.70
49132;DHT22;35149;51.196;6.204;2023-04-19T14:01:58;29.60;28.00
49132;DHT22;35149;51.196;6.204;2023-04-19T14:04:25;30.70;27.40
49132;DHT22;35149;51.196;6.204;2023-04-19T14:06:55;31.50;26.40
49132;DHT22;35149;51.196;6.204;2023-04-19T14:09:26;32.30;25.30
49132;DHT22;35149;51.196;6.204;2023-04-19T14:11:53;33.00;24.60
49132;DHT22;35149;51.196;6.204;2023-04-19T14:14:19;33.50;24.80
49132;DHT22;35149;51.196;6.204;2023-04-19T14:16:51;34.10;24.30
49132;DHT22;35149;51.196;6.204;2023-04-19T14:19:19;34.60;24.30
49132;DHT22;35149;51.196;6.204;2023-04-19T14:21:46;35.10;24.10
49132;DHT22;35149;51.196;6.204;2023-04-19T14:24:12;35.60;23.10
49132;DHT22;35149;51.196;6.204;2023-04-19T14:26:41;36.00;22.90
49132;DHT22;35149;51.196;6.204;2023-04-19T14:29:19;36.30;22.50
49132;DHT22;35149;51.196;6.204;2023-04-19T14:31:46;36.60;22.00
49132;DHT22;35149;51.196;6.204;2023-04-19T14:34:16;36.60;21.50
49132;DHT22;35149;51.196;6.204;2023-04-19T14:36:43;36.70;21.60
49132;DHT22;35149;51.196;6.204;2023-04-19T14:39:09;36.80;21.40
49132;DHT22;35149;51.196;6.204;2023-04-19T14:41:47;36.90;21.40
49132;DHT22;35149;51.196;6.204;2023-04-19T14:44:19;36.90;21.20
49132;DHT22;35149;51.196;6.204;2023-04-19T14:46:51;37.00;21.10
49132;DHT22;35149;51.196;6.204;2023-04-19T14:49:17;37.10;20.80
49132;DHT22;35149;51.196;6.204;2023-04-19T14:51:46;37.20;21.00
49132;DHT22;35149;51.196;6.204;2023-04-19T14:54:17;37.30;21.10
49132;DHT22;35149;51.196;6.204;2023-04-19T14:56:44;37.50;21.20
49132;DHT22;35149;51.196;6.204;2023-04-19T14:59:15;37.70;21.00
49132;DHT22;35149;51.196;6.204;2023-04-19T15:01:46;37.90;20.70
49132;DHT22;35149;51.196;6.204;2023-04-19T15:04:15;38.20;20.70
49132;DHT22;35149;51.196;6.204;2023-04-19T15:06:42;38.30;20.50
49132;DHT22;35149;51.196;6.204;2023-04-19T15:09:09;38.50;20.30
49132;DHT22;35149;51.196;6.204;2023-04-19T15:11:37;38.50;20.40
49132;DHT22;35149;51.196;6.204;2023-04-19T15:14:08;38.50;20.30
49132;DHT22;35149;51.196;6.204;2023-04-19T15:16:41;38.60;20.00
49132;DHT22;35149;51.196;6.204;2023-04-19T15:19:12;38.60;20.10
49132;DHT22;35149;51.196;6.204;2023-04-19T15:21:44;38.60;19.90
49132;DHT22;35149;51.196;6.204;2023-04-19T15:24:11;38.60;19.70
49132;DHT22;35149;51.196;6.204;2023-04-19T15:26:40;38.70;20.10
49132;DHT22;35149;51.196;6.204;2023-04-19T15:29:10;38.70;20.00
49132;DHT22;35149;51.196;6.204;2023-04-19T15:31:42;38.70;20.00
49132;DHT22;35149;51.196;6.204;2023-04-19T15:34:09;38.90;19.60
49132;DHT22;35149;51.196;6.204;2023-04-19T15:36:39;38.80;19.60
49132;DHT22;35149;51.196;6.204;2023-04-19T15:39:06;38.90;19.70
49132;DHT22;35149;51.196;6.204;2023-04-19T15:41:35;38.90;19.40
49132;DHT22;35149;51.196;6.204;2023-04-19T15:44:02;39.00;19.50
49132;DHT22;35149;51.196;6.204;2023-04-19T15:46:34;39.00;19.60
49132;DHT22;35149;51.196;6.204;2023-04-19T15:49:08;39.10;19.40
49132;DHT22;35149;51.196;6.204;2023-04-19T15:51:35;39.10;19.60
49132;DHT22;35149;51.196;6.204;2023-04-19T15:54:04;39.10;19.50
49132;DHT22;35149;51.196;6.204;2023-04-19T15:56:31;39.10;19.40
49132;DHT22;35149;51.196;6.204;2023-04-19T15:59:00;39.10;19.40